createdAt,value
2018-06-25T00:00:37.459Z,16.90
2018-06-25T00:03:09.638Z,16.90
2018-06-25T00:05:40.771Z,16.80
2018-06-25T00:08:12.076Z,16.80
2018-06-25T00:10:44.093Z,16.80
2018-06-25T00:13:15.198Z,16.70
2018-06-25T00:15:47.315Z,16.70
2018-06-25T00:18:19.076Z,16.60
2018-06-25T00:20:50.208Z,16.60
2018-06-25T00:23:21.299Z,16.60
2018-06-25T00:25:52.406Z,16.60
2018-06-25T00:28:23.441Z,16.60
2018-06-25T00:30:55.362Z,16.60
2018-06-25T00:33:26.618Z,16.60
2018-06-25T00:35:57.674Z,16.60
2018-06-25T00:38:28.731Z,16.60
2018-06-25T00:40:59.635Z,16.50
2018-06-25T00:43:31.015Z,16.40
2018-06-25T00:46:02.293Z,16.40
2018-06-25T00:48:33.428Z,16.40
2018-06-25T00:51:04.445Z,16.40
2018-06-25T00:53:35.541Z,16.30
2018-06-25T00:56:07.229Z,16.30
2018-06-25T00:58:54.551Z,16.20
2018-06-25T01:01:25.654Z,16.10
2018-06-25T01:03:57.268Z,16.00
2018-06-25T01:06:29.585Z,16.00
2018-06-25T01:09:00.733Z,15.90
2018-06-25T01:11:32.627Z,15.90
2018-06-25T01:14:04.009Z,15.90
2018-06-25T01:16:35.207Z,15.90
2018-06-25T01:19:06.692Z,16.00
2018-06-25T01:21:37.959Z,15.90
2018-06-25T01:24:09.851Z,15.90
2018-06-25T01:26:40.811Z,15.90
2018-06-25T01:29:11.895Z,16.00
2018-06-25T01:31:43.724Z,16.00
2018-06-25T01:34:15.765Z,16.00
2018-06-25T01:36:46.983Z,15.90
2018-06-25T01:39:18.405Z,15.80
2018-06-25T01:41:49.591Z,15.80
2018-06-25T01:44:20.829Z,15.80
2018-06-25T01:46:51.809Z,15.80
2018-06-25T01:49:22.955Z,15.80
2018-06-25T01:51:53.966Z,15.70
2018-06-25T01:54:25.079Z,15.70
2018-06-25T01:56:56.380Z,15.70
2018-06-25T02:01:58.965Z,15.60
2018-06-25T02:04:30.675Z,15.70
2018-06-25T02:07:02.185Z,15.60
2018-06-25T02:09:33.511Z,15.50
2018-06-25T02:12:04.638Z,15.40
2018-06-25T02:14:35.586Z,15.30
2018-06-25T02:17:06.836Z,15.30
2018-06-25T02:19:37.952Z,15.30
2018-06-25T02:22:09.312Z,15.40
2018-06-25T02:24:40.383Z,15.40
2018-06-25T02:27:11.709Z,15.40
2018-06-25T02:29:42.957Z,15.40
2018-06-25T02:32:14.134Z,15.50
2018-06-25T02:34:45.396Z,15.50
2018-06-25T02:37:16.496Z,15.50
2018-06-25T02:39:48.512Z,15.60
2018-06-25T02:42:19.420Z,15.60
2018-06-25T02:44:50.264Z,15.50
2018-06-25T02:47:21.645Z,15.50
2018-06-25T02:49:52.480Z,15.40
2018-06-25T02:52:23.370Z,15.40
2018-06-25T02:54:54.510Z,15.40
2018-06-25T02:57:25.551Z,15.40
2018-06-25T02:59:56.509Z,15.40
2018-06-25T03:02:27.528Z,15.50
2018-06-25T03:04:58.542Z,15.50
2018-06-25T03:07:29.699Z,15.60
2018-06-25T03:10:00.726Z,15.60
2018-06-25T03:12:32.559Z,15.80
2018-06-25T03:15:03.944Z,15.70
2018-06-25T03:17:34.801Z,15.70
2018-06-25T03:20:06.031Z,15.70
2018-06-25T03:22:37.402Z,15.60
2018-06-25T03:25:08.234Z,15.60
2018-06-25T03:27:39.280Z,15.50
2018-06-25T03:30:10.224Z,15.50
2018-06-25T03:32:42.873Z,15.40
2018-06-25T03:35:13.775Z,15.50
2018-06-25T03:37:45.557Z,15.40
2018-06-25T03:40:16.433Z,15.50
2018-06-25T03:42:47.779Z,15.60
2018-06-25T03:45:18.831Z,15.60
2018-06-25T03:50:20.885Z,15.40
2018-06-25T03:52:51.860Z,15.50
2018-06-25T03:55:22.915Z,15.40
2018-06-25T03:57:54.154Z,15.50
2018-06-25T04:00:25.529Z,15.40
2018-06-25T04:02:56.768Z,15.40
2018-06-25T04:05:27.853Z,15.40
2018-06-25T04:07:59.807Z,15.40
2018-06-25T04:15:32.762Z,15.60
2018-06-25T04:18:03.779Z,15.60
2018-06-25T04:20:34.814Z,15.70
2018-06-25T04:23:05.628Z,15.80
2018-06-25T04:25:36.827Z,15.90
2018-06-25T04:30:39.102Z,16.00
2018-06-25T04:33:10.055Z,16.20
2018-06-25T04:35:41.734Z,16.30
2018-06-25T04:38:13.275Z,16.30
2018-06-25T04:40:44.650Z,16.30
2018-06-25T04:43:22.764Z,16.30
2018-06-25T04:45:53.968Z,16.40
2018-06-25T04:48:25.072Z,16.40
2018-06-25T04:50:56.253Z,16.50
2018-06-25T04:53:27.665Z,16.50
2018-06-25T04:55:58.778Z,16.60
2018-06-25T04:58:30.879Z,16.60
2018-06-25T05:01:02.298Z,16.60
2018-06-25T05:03:33.267Z,16.50
2018-06-25T05:06:05.304Z,16.60
2018-06-25T05:08:37.195Z,16.70
2018-06-25T05:11:09.061Z,16.80
2018-06-25T05:13:39.941Z,16.80
2018-06-25T05:16:11.836Z,16.90
2018-06-25T05:18:44.340Z,17.00
2018-06-25T05:21:16.294Z,17.10
2018-06-25T05:23:47.605Z,17.20
2018-06-25T05:26:18.733Z,17.40
2018-06-25T05:31:20.951Z,17.60
2018-06-25T05:33:52.265Z,17.70
2018-06-25T05:36:23.814Z,17.90
2018-06-25T05:38:55.430Z,18.00
2018-06-25T05:41:27.123Z,18.10
2018-06-25T05:43:58.205Z,18.20
2018-06-25T05:46:29.467Z,18.40
2018-06-25T05:51:31.053Z,18.70
2018-06-25T05:54:02.945Z,18.90
2018-06-25T05:56:34.406Z,18.90
2018-06-25T05:59:06.088Z,19.00
2018-06-25T06:01:37.614Z,19.10
2018-06-25T06:04:09.079Z,19.40
2018-06-25T06:06:40.166Z,19.60
2018-06-25T06:09:11.395Z,19.80
2018-06-25T06:11:44.117Z,20.10
2018-06-25T06:14:15.643Z,20.10
2018-06-25T06:16:46.915Z,20.40
2018-06-25T06:19:18.661Z,20.70
2018-06-25T06:21:50.189Z,20.90
2018-06-25T06:24:22.507Z,20.90
2018-06-25T06:26:54.132Z,21.10
2018-06-25T06:29:29.322Z,21.40
2018-06-25T06:32:01.202Z,21.80
2018-06-25T06:34:33.260Z,22.10
2018-06-25T06:37:04.663Z,22.40
2018-06-25T06:39:36.371Z,22.90
2018-06-25T06:44:39.422Z,23.80
2018-06-25T06:47:11.429Z,24.10
2018-06-25T06:49:42.578Z,24.50
2018-06-25T06:52:13.601Z,24.60
2018-06-25T06:59:46.639Z,25.10
2018-06-25T07:02:17.894Z,25.40
2018-06-25T07:04:49.451Z,25.30
2018-06-25T07:07:21.552Z,25.10
2018-06-25T07:09:53.563Z,25.30
2018-06-25T07:12:26.105Z,25.50
2018-06-25T07:14:57.383Z,25.70
2018-06-25T07:17:28.547Z,25.90
2018-06-25T07:19:59.377Z,26.20
2018-06-25T07:22:30.628Z,26.40
2018-06-25T07:30:04.637Z,26.20
2018-06-25T07:32:35.691Z,26.20
2018-06-25T07:35:06.705Z,26.10
2018-06-25T07:37:37.835Z,26.20
2018-06-25T07:40:08.972Z,26.50
2018-06-25T07:42:40.074Z,26.90
2018-06-25T07:45:11.856Z,27.10
2018-06-25T07:47:44.042Z,27.10
2018-06-25T07:50:15.867Z,27.40
2018-06-25T07:52:47.694Z,27.70
2018-06-25T08:41:15.807Z,28.20
2018-06-25T08:43:48.251Z,30.80
2018-06-25T08:46:19.645Z,30.00
2018-06-25T08:48:51.132Z,30.40
2018-06-25T08:51:23.013Z,30.70
2018-06-25T08:53:54.871Z,31.00
2018-06-25T08:56:26.541Z,30.80
2018-06-25T08:58:59.277Z,30.80
2018-06-25T09:01:30.897Z,31.10
2018-06-25T09:04:03.634Z,31.40
2018-06-25T09:06:35.056Z,31.50
2018-06-25T09:09:10.629Z,31.70
2018-06-25T09:11:41.709Z,31.90
2018-06-25T09:14:14.049Z,32.10
2018-06-25T09:16:45.982Z,32.10
2018-06-25T09:19:17.549Z,32.30
2018-06-25T09:21:49.845Z,32.60
2018-06-25T09:24:21.137Z,32.70
2018-06-25T09:26:53.777Z,32.80
2018-06-25T09:29:26.785Z,32.70
2018-06-25T09:31:59.593Z,32.90
2018-06-25T09:34:36.693Z,32.90
2018-06-25T09:37:09.544Z,33.50
2018-06-25T09:39:44.501Z,33.50
2018-06-25T09:42:17.317Z,33.30
2018-06-25T09:44:50.135Z,33.10
2018-06-25T09:47:22.000Z,33.30
2018-06-25T09:49:53.749Z,33.60
2018-06-25T09:54:56.733Z,33.50
2018-06-25T09:57:28.369Z,33.70
2018-06-25T10:00:00.699Z,33.60
2018-06-25T10:02:32.542Z,33.70
2018-06-25T10:05:03.715Z,33.80
2018-06-25T10:07:35.301Z,34.00
2018-06-25T10:10:06.659Z,34.30
2018-06-25T10:12:37.867Z,34.40
2018-06-25T10:15:09.201Z,34.30
2018-06-25T10:17:41.877Z,34.10
2018-06-25T10:20:13.598Z,34.00
2018-06-25T10:22:45.078Z,34.20
2018-06-25T10:25:16.183Z,34.60
2018-06-25T10:27:47.384Z,34.60
2018-06-25T10:30:18.754Z,34.60
2018-06-25T10:32:49.867Z,34.90
2018-06-25T10:35:21.812Z,34.90
2018-06-25T10:37:53.374Z,34.60
2018-06-25T10:40:25.938Z,34.70
2018-06-25T10:42:57.129Z,35.10
2018-06-25T10:45:28.593Z,35.40
2018-06-25T10:48:00.099Z,34.50
2018-06-25T10:50:31.103Z,33.30
2018-06-25T10:53:03.133Z,32.50
2018-06-25T10:55:34.177Z,31.70
2018-06-25T10:58:05.375Z,31.00
2018-06-25T11:00:36.553Z,30.30
2018-06-25T11:03:08.890Z,29.70
2018-06-25T11:05:40.212Z,29.10
2018-06-25T11:08:11.519Z,29.40
2018-06-25T11:10:45.740Z,30.10
2018-06-25T11:13:17.728Z,31.10
2018-06-25T11:15:48.808Z,32.00
2018-06-25T11:18:20.222Z,32.60
2018-06-25T11:20:52.861Z,33.30
2018-06-25T11:23:24.563Z,33.30
2018-06-25T11:25:57.940Z,34.30
2018-06-25T11:28:29.338Z,33.00
2018-06-25T11:31:03.026Z,32.80
2018-06-25T11:33:34.293Z,31.90
2018-06-25T11:36:08.907Z,31.20
2018-06-25T11:38:41.394Z,31.30
2018-06-25T11:41:13.848Z,30.90
2018-06-25T11:43:45.655Z,31.30
2018-06-25T11:46:17.186Z,32.00
2018-06-25T11:48:48.508Z,32.30
2018-06-25T11:51:20.913Z,32.80
2018-06-25T11:53:52.685Z,32.70
2018-06-25T11:56:23.724Z,32.40
2018-06-25T11:58:55.499Z,31.90
2018-06-25T12:01:27.414Z,31.70
2018-06-25T12:04:04.162Z,31.70
2018-06-25T12:06:37.261Z,31.90
2018-06-25T12:09:14.476Z,31.70
2018-06-25T12:11:48.225Z,31.40
2018-06-25T12:14:21.035Z,31.10
2018-06-25T12:16:52.869Z,31.30
2018-06-25T12:19:25.316Z,31.40
2018-06-25T12:21:57.601Z,31.80
2018-06-25T12:24:31.812Z,32.00
2018-06-25T12:27:05.572Z,31.40
2018-06-25T12:29:37.891Z,30.40
2018-06-25T12:32:10.518Z,29.20
2018-06-25T12:34:42.321Z,27.70
2018-06-25T12:37:13.761Z,26.50
2018-06-25T12:39:45.522Z,25.10
2018-06-25T12:42:18.417Z,24.50
2018-06-25T12:44:50.056Z,24.40
2018-06-25T12:47:22.691Z,24.50
2018-06-25T12:55:03.950Z,24.30
2018-06-25T12:57:41.082Z,24.00
2018-06-25T13:00:12.489Z,24.10
2018-06-25T13:02:49.422Z,24.00
2018-06-25T13:05:21.038Z,24.10
2018-06-25T13:10:27.077Z,24.20
2018-06-25T13:12:59.035Z,24.40
2018-06-25T13:15:30.923Z,24.60
2018-06-25T13:20:33.728Z,24.70
2018-06-25T13:23:06.509Z,24.60
2018-06-25T13:25:38.116Z,24.40
2018-06-25T13:28:09.977Z,23.70
2018-06-25T13:30:42.059Z,23.10
2018-06-25T13:33:13.924Z,22.50
2018-06-25T13:35:45.534Z,22.00
2018-06-25T13:38:17.823Z,21.40
2018-06-25T13:40:49.248Z,20.60
2018-06-25T13:43:20.557Z,20.00
2018-06-25T13:45:52.658Z,19.60
2018-06-25T13:48:25.230Z,19.20
2018-06-25T13:50:59.361Z,18.90
2018-06-25T13:53:31.440Z,18.60
2018-06-25T13:56:03.965Z,18.50
2018-06-25T13:58:35.948Z,18.40
2018-06-25T14:01:08.564Z,18.40
2018-06-25T14:03:40.470Z,18.40
2018-06-25T14:06:14.178Z,18.20
2018-06-25T14:08:45.860Z,18.20
2018-06-25T14:11:18.865Z,18.20
2018-06-25T14:13:50.492Z,18.20
2018-06-25T14:16:22.138Z,18.30
2018-06-25T14:18:53.583Z,18.30
2018-06-25T14:21:25.351Z,18.30
2018-06-25T14:24:02.460Z,18.30
2018-06-25T14:26:39.427Z,18.30
2018-06-25T14:29:15.571Z,18.20
2018-06-25T14:31:46.937Z,18.20
2018-06-25T14:34:23.303Z,18.20
2018-06-25T14:36:54.619Z,18.30
2018-06-25T14:39:26.724Z,18.30
2018-06-25T14:47:00.783Z,18.30
2018-06-25T14:49:32.036Z,18.30
2018-06-25T14:52:03.582Z,18.30
2018-06-25T14:54:34.445Z,18.30
2018-06-25T14:57:06.232Z,18.30
2018-06-25T14:59:38.015Z,18.30
2018-06-25T15:02:10.361Z,18.20
2018-06-25T15:04:41.805Z,18.10
2018-06-25T15:07:16.972Z,18.10
2018-06-25T15:09:51.663Z,18.10
2018-06-25T15:12:23.994Z,18.10
2018-06-25T15:14:56.088Z,18.10
2018-06-25T15:17:29.245Z,18.10
2018-06-25T15:20:02.746Z,18.10
2018-06-25T15:22:38.032Z,18.10
2018-06-25T15:25:10.312Z,18.20
2018-06-25T15:27:42.515Z,18.30
2018-06-25T15:30:14.415Z,18.30
2018-06-25T15:32:46.196Z,18.40
2018-06-25T15:35:18.997Z,18.40
2018-06-25T15:37:50.833Z,18.40
2018-06-25T15:40:23.540Z,18.50
2018-06-25T15:42:56.290Z,18.60
2018-06-25T15:45:29.838Z,18.60
2018-06-25T15:48:03.311Z,18.60
2018-06-25T15:50:37.043Z,18.70
2018-06-25T15:53:10.012Z,18.70
2018-06-25T15:55:46.880Z,18.70
2018-06-25T15:58:18.974Z,18.70
2018-06-25T16:00:51.586Z,18.80
2018-06-25T16:03:26.089Z,18.80
2018-06-25T16:06:01.478Z,18.80
2018-06-25T16:08:33.642Z,18.90
2018-06-25T16:11:08.609Z,18.90
2018-06-25T16:13:41.351Z,18.90
2018-06-25T16:16:14.244Z,19.00
2018-06-25T16:18:49.636Z,19.00
2018-06-25T16:21:21.045Z,19.10
2018-06-25T16:26:23.736Z,19.30
2018-06-25T16:28:56.066Z,19.30
2018-06-25T16:31:28.399Z,19.40
2018-06-25T16:34:00.073Z,19.40
2018-06-25T16:36:32.296Z,19.40
2018-06-25T16:39:03.823Z,19.40
2018-06-25T16:41:35.775Z,19.40
2018-06-25T16:44:08.632Z,19.40
2018-06-25T16:46:40.539Z,19.50
2018-06-25T16:49:14.359Z,19.50
2018-06-25T16:51:47.554Z,19.60
2018-06-25T16:54:25.385Z,19.60
2018-06-25T16:56:57.375Z,19.70
2018-06-25T16:59:29.243Z,19.70
2018-06-25T17:02:05.471Z,19.80
2018-06-25T17:04:37.247Z,19.80
2018-06-25T17:07:09.270Z,19.90
2018-06-25T17:09:40.819Z,19.90
2018-06-25T17:12:14.187Z,20.00
2018-06-25T17:14:47.402Z,20.10
2018-06-25T17:17:18.913Z,20.20
2018-06-25T17:19:51.594Z,20.20
2018-06-25T17:22:23.572Z,20.20
2018-06-25T17:24:55.332Z,20.30
2018-06-25T17:27:28.089Z,20.30
2018-06-25T17:32:33.422Z,20.30
2018-06-25T17:35:05.623Z,20.30
2018-06-25T17:37:37.964Z,20.30
2018-06-25T17:42:44.068Z,20.40
2018-06-25T17:45:16.939Z,20.40
2018-06-25T17:47:49.984Z,20.40
2018-06-25T17:50:22.355Z,20.40
2018-06-25T17:52:54.953Z,20.50
2018-06-25T17:55:28.396Z,20.50
2018-06-25T17:58:01.322Z,20.50
2018-06-25T18:00:34.698Z,20.40
2018-06-25T18:05:39.856Z,20.30
2018-06-25T18:08:12.800Z,20.30
2018-06-25T18:10:49.045Z,20.20
2018-06-25T18:13:22.356Z,20.20
2018-06-25T18:15:55.874Z,20.20
2018-06-25T18:18:28.989Z,20.10
2018-06-25T18:21:01.948Z,20.10
2018-06-25T18:23:35.662Z,20.10
2018-06-25T18:26:08.800Z,20.00
2018-06-25T18:28:41.659Z,20.10
2018-06-25T18:31:14.721Z,20.10
2018-06-25T18:33:49.219Z,19.90
2018-06-25T18:36:23.127Z,19.90
2018-06-25T18:38:56.100Z,19.80
2018-06-25T18:41:29.192Z,19.80
2018-06-25T18:44:02.866Z,19.70
2018-06-25T18:46:35.541Z,19.60
2018-06-25T18:49:08.840Z,19.50
2018-06-25T18:51:42.152Z,19.40
2018-06-25T18:54:15.244Z,19.40
2018-06-25T18:56:47.805Z,19.20
2018-06-25T18:59:20.311Z,19.10
2018-06-25T19:01:53.045Z,19.00
2018-06-25T19:04:25.814Z,18.90
2018-06-25T19:06:58.575Z,18.80
2018-06-25T19:09:31.326Z,18.80
2018-06-25T19:12:03.862Z,18.70
2018-06-25T19:14:37.127Z,18.60
2018-06-25T19:17:09.776Z,18.60
2018-06-25T19:19:42.688Z,18.50
2018-06-25T19:22:18.116Z,18.40
2018-06-25T19:24:52.289Z,18.40
2018-06-25T19:27:27.139Z,18.40
2018-06-25T19:30:05.121Z,18.30
2018-06-25T19:32:38.616Z,18.20
2018-06-25T19:35:14.753Z,18.20
2018-06-25T19:37:51.330Z,18.10
2018-06-25T19:40:25.805Z,18.00
2018-06-25T20:28:56.368Z,18.00
2018-06-25T20:31:29.976Z,17.20
2018-06-25T20:34:02.782Z,17.10
2018-06-25T20:36:35.531Z,17.10
2018-06-25T20:39:12.988Z,17.10
2018-06-25T20:41:46.823Z,17.20
2018-06-25T20:44:20.489Z,17.10
2018-06-25T20:46:54.217Z,16.70
2018-06-25T20:49:26.660Z,16.40
2018-06-25T20:52:01.383Z,16.40
2018-06-25T20:54:33.362Z,16.30
2018-06-25T20:57:07.153Z,16.30
2018-06-25T20:59:40.016Z,16.30
2018-06-25T21:02:11.519Z,16.30
2018-06-25T21:04:44.484Z,16.30
2018-06-25T21:07:16.050Z,16.30
2018-06-25T21:09:48.779Z,16.30
2018-06-25T21:12:21.087Z,16.30
2018-06-25T21:14:52.480Z,16.30
2018-06-25T21:17:24.072Z,16.30
2018-06-25T21:19:55.494Z,16.30
2018-06-25T21:22:27.292Z,16.30
2018-06-25T21:24:58.659Z,16.30
2018-06-25T21:27:30.555Z,16.30
2018-06-25T21:30:03.591Z,16.30
2018-06-25T21:32:35.158Z,16.30
2018-06-25T21:35:07.449Z,16.20
2018-06-25T21:37:39.759Z,16.30
2018-06-25T21:42:42.425Z,16.30
2018-06-25T21:45:15.352Z,16.30
2018-06-25T21:47:46.658Z,16.20
2018-06-25T21:50:18.013Z,16.20
2018-06-25T21:52:49.360Z,16.20
2018-06-25T21:55:20.797Z,16.20
2018-06-25T21:57:54.384Z,16.20
2018-06-25T22:00:31.028Z,16.10
2018-06-25T22:03:03.309Z,16.10
2018-06-25T22:05:36.737Z,16.10
2018-06-25T22:08:07.907Z,16.10
2018-06-25T22:10:42.339Z,16.20
2018-06-25T22:13:14.523Z,16.10
2018-06-25T22:15:46.466Z,16.10
2018-06-25T22:18:17.680Z,16.10
2018-06-25T22:20:48.700Z,16.10
2018-06-25T22:23:24.377Z,16.00
2018-06-25T22:25:55.827Z,16.00
2018-06-25T22:28:26.963Z,16.00
2018-06-25T22:30:58.105Z,16.00
2018-06-25T22:33:29.431Z,16.00
2018-06-25T22:36:00.442Z,15.90
2018-06-25T22:38:32.076Z,15.90
2018-06-25T22:41:03.165Z,15.90
2018-06-25T22:43:35.681Z,15.90
2018-06-25T22:46:06.877Z,15.80
2018-06-25T22:48:38.200Z,15.80
2018-06-25T22:51:09.691Z,15.60
2018-06-25T22:53:41.614Z,15.50
2018-06-25T22:56:13.218Z,15.40
2018-06-25T22:58:44.981Z,15.30
2018-06-25T23:01:16.071Z,15.30
2018-06-25T23:03:47.574Z,15.30
2018-06-25T23:06:18.933Z,15.20
2018-06-25T23:08:50.300Z,15.20
2018-06-25T23:11:21.588Z,15.20
2018-06-25T23:13:52.611Z,15.10
2018-06-25T23:16:23.814Z,15.10
2018-06-25T23:18:54.791Z,15.10
2018-06-25T23:21:26.056Z,15.20
2018-06-25T23:23:57.349Z,15.20
2018-06-25T23:26:29.413Z,15.20
2018-06-25T23:29:00.515Z,15.20
2018-06-25T23:31:31.855Z,15.20
2018-06-25T23:34:03.142Z,15.20
2018-06-25T23:36:34.121Z,15.20
2018-06-25T23:39:07.238Z,15.20
2018-06-25T23:41:38.725Z,15.10
2018-06-25T23:44:10.858Z,15.00
2018-06-25T23:46:41.708Z,15.00
2018-06-25T23:49:13.500Z,15.00
2018-06-25T23:51:45.059Z,15.00
2018-06-25T23:54:17.038Z,15.00
2018-06-25T23:56:48.073Z,15.00
